createdAt,value
2019-02-25T00:04:34.148Z,100473.17
2019-02-25T00:06:44.931Z,100468.40
2019-02-25T00:08:55.763Z,100471.81
2019-02-25T00:11:06.550Z,100462.84
2019-02-25T00:13:17.457Z,100458.96
2019-02-25T00:15:28.268Z,100465.02
2019-02-25T00:18:00.842Z,100460.32
2019-02-25T00:20:11.793Z,100456.39
2019-02-25T00:22:22.581Z,100458.91
2019-02-25T00:24:33.391Z,100464.89
2019-02-25T00:26:44.247Z,100463.13
2019-02-25T00:28:55.077Z,100465.78
2019-02-25T00:31:05.994Z,100468.05
2019-02-25T00:33:16.835Z,100457.42
2019-02-25T00:35:27.653Z,100457.42
2019-02-25T00:37:38.587Z,100460.84
2019-02-25T00:39:49.448Z,100455.20
2019-02-25T00:42:00.247Z,100458.02
2019-02-25T00:44:11.049Z,100459.62
2019-02-25T00:46:21.897Z,100460.39
2019-02-25T00:48:32.662Z,100456.92
2019-02-25T00:50:43.481Z,100458.64
2019-02-25T00:52:54.296Z,100455.65
2019-02-25T00:55:46.767Z,100459.54
2019-02-25T00:57:57.571Z,100464.66
2019-02-25T01:00:50.109Z,100460.83
2019-02-25T01:03:00.951Z,100453.66
2019-02-25T01:08:10.147Z,100446.45
2019-02-25T01:10:20.952Z,100444.56
2019-02-25T01:12:31.769Z,100443.66
2019-02-25T01:14:42.563Z,100439.43
2019-02-25T01:16:53.370Z,100440.67
2019-02-25T01:19:04.161Z,100440.06
2019-02-25T01:21:14.998Z,100440.76
2019-02-25T01:23:25.798Z,100440.28
2019-02-25T01:25:36.620Z,100442.45
2019-02-25T01:27:47.446Z,100435.73
2019-02-25T01:29:58.237Z,100427.25
2019-02-25T01:32:09.172Z,100432.47
2019-02-25T01:34:19.974Z,100437.50
2019-02-25T01:36:30.863Z,100431.47
2019-02-25T01:38:41.693Z,100422.84
2019-02-25T01:40:52.475Z,100421.94
2019-02-25T01:43:03.321Z,100416.78
2019-02-25T01:45:55.764Z,100421.41
2019-02-25T01:48:06.577Z,100423.34
2019-02-25T01:50:17.381Z,100427.08
2019-02-25T01:52:28.170Z,100420.79
2019-02-25T01:54:38.979Z,100415.81
2019-02-25T01:56:49.825Z,100418.66
2019-02-25T01:59:00.698Z,100426.26
2019-02-25T02:01:11.456Z,100428.83
2019-02-25T02:03:22.297Z,100425.41
2019-02-25T02:05:33.106Z,100436.87
2019-02-25T02:07:43.953Z,100431.77
2019-02-25T02:09:54.754Z,100433.52
2019-02-25T02:12:05.543Z,100431.87
2019-02-25T02:14:16.384Z,100427.65
2019-02-25T02:16:27.191Z,100438.32
2019-02-25T02:18:37.989Z,100432.29
2019-02-25T02:20:48.797Z,100433.51
2019-02-25T02:22:59.594Z,100440.70
2019-02-25T02:25:52.088Z,100435.91
2019-02-25T02:28:02.996Z,100439.22
2019-02-25T02:30:55.465Z,100437.02
2019-02-25T02:33:06.255Z,100436.91
2019-02-25T02:35:17.068Z,100437.59
2019-02-25T02:37:27.941Z,100438.48
2019-02-25T02:39:38.759Z,100433.73
2019-02-25T02:42:10.551Z,100427.28
2019-02-25T02:44:21.354Z,100431.06
2019-02-25T02:47:11.916Z,100439.41
2019-02-25T02:49:22.728Z,100437.63
2019-02-25T02:51:33.565Z,100441.10
2019-02-25T02:53:44.354Z,100440.02
2019-02-25T02:55:55.176Z,100446.10
2019-02-25T02:58:05.962Z,100441.48
2019-02-25T03:00:17.862Z,100447.02
2019-02-25T03:02:28.684Z,100445.25
2019-02-25T03:04:39.485Z,100449.83
2019-02-25T03:06:50.362Z,100449.87
2019-02-25T03:09:01.124Z,100451.57
2019-02-25T03:11:12.008Z,100445.97
2019-02-25T03:13:22.806Z,100445.97
2019-02-25T03:15:33.631Z,100450.66
2019-02-25T03:17:44.426Z,100455.53
2019-02-25T03:19:55.215Z,100458.94
2019-02-25T03:22:06.042Z,100450.84
2019-02-25T03:24:16.838Z,100454.30
2019-02-25T03:26:27.681Z,100456.45
2019-02-25T03:28:38.584Z,100453.40
2019-02-25T03:30:49.387Z,100457.64
2019-02-25T03:33:00.219Z,100462.03
2019-02-25T03:35:11.118Z,100454.48
2019-02-25T03:37:21.932Z,100456.94
2019-02-25T03:39:32.729Z,100455.39
2019-02-25T03:41:43.532Z,100460.25
2019-02-25T03:43:54.345Z,100457.05
2019-02-25T03:46:05.245Z,100459.67
2019-02-25T03:48:16.056Z,100464.28
2019-02-25T03:50:26.858Z,100468.48
2019-02-25T03:52:37.673Z,100473.09
2019-02-25T03:54:49.539Z,100463.31
2019-02-25T03:57:00.422Z,100460.05
2019-02-25T03:59:11.245Z,100451.25
2019-02-25T04:01:22.052Z,100457.62
2019-02-25T04:03:32.853Z,100459.12
2019-02-25T04:05:43.771Z,100459.61
2019-02-25T04:07:54.700Z,100456.68
2019-02-25T04:10:47.153Z,100463.08
2019-02-25T04:12:57.999Z,100471.25
2019-02-25T04:15:50.438Z,100475.06
2019-02-25T04:18:01.251Z,100472.92
2019-02-25T04:20:53.705Z,100471.10
2019-02-25T04:23:04.525Z,100468.56
2019-02-25T04:25:15.346Z,100457.62
2019-02-25T04:27:26.142Z,100461.87
2019-02-25T04:29:36.959Z,100458.41
2019-02-25T04:31:47.752Z,100452.14
2019-02-25T04:33:58.592Z,100453.48
2019-02-25T04:36:09.394Z,100448.39
2019-02-25T04:38:20.192Z,100455.20
2019-02-25T04:40:31.000Z,100456.84
2019-02-25T04:42:41.839Z,100462.66
2019-02-25T04:44:52.655Z,100473.16
2019-02-25T04:47:03.455Z,100473.22
2019-02-25T04:49:14.259Z,100474.43
2019-02-25T04:51:25.049Z,100483.16
2019-02-25T04:53:35.864Z,100475.48
2019-02-25T04:55:46.793Z,100478.53
2019-02-25T04:57:57.601Z,100483.89
2019-02-25T05:00:28.355Z,100489.88
2019-02-25T05:02:39.150Z,100485.15
2019-02-25T05:04:49.967Z,100481.31
2019-02-25T05:07:00.789Z,100478.70
2019-02-25T05:09:11.669Z,100479.48
2019-02-25T05:13:41.429Z,100479.24
2019-02-25T05:15:52.242Z,100479.89
2019-02-25T05:18:03.167Z,100477.39
2019-02-25T05:20:13.999Z,100476.99
2019-02-25T05:22:24.784Z,100475.78
2019-02-25T05:27:14.492Z,100474.92
2019-02-25T05:29:25.302Z,100474.59
2019-02-25T05:31:36.114Z,100478.55
2019-02-25T05:33:46.930Z,100477.70
2019-02-25T05:35:57.741Z,100474.17
2019-02-25T05:38:08.537Z,100471.58
2019-02-25T05:40:41.112Z,100477.04
2019-02-25T05:42:51.922Z,100472.30
2019-02-25T05:45:44.370Z,100467.22
2019-02-25T05:47:55.156Z,100464.36
2019-02-25T05:50:49.584Z,100475.84
2019-02-25T05:53:00.378Z,100471.62
2019-02-25T05:55:52.818Z,100482.94
2019-02-25T05:58:03.633Z,100483.79
2019-02-25T06:00:56.082Z,100483.88
2019-02-25T06:03:06.903Z,100477.98
2019-02-25T06:05:17.718Z,100478.84
2019-02-25T06:07:28.531Z,100467.27
2019-02-25T06:09:39.328Z,100472.72
2019-02-25T06:11:50.136Z,100481.23
2019-02-25T06:14:42.617Z,100479.67
2019-02-25T06:16:53.452Z,100483.16
2019-02-25T06:19:04.263Z,100481.73
2019-02-25T06:21:15.073Z,100491.88
2019-02-25T06:23:25.880Z,100487.91
2019-02-25T06:25:36.705Z,100485.22
2019-02-25T06:27:47.537Z,100478.42
2019-02-25T06:29:58.349Z,100489.95
2019-02-25T06:32:09.154Z,100490.77
2019-02-25T06:34:19.975Z,100487.78
2019-02-25T06:36:30.764Z,100491.30
2019-02-25T06:38:41.581Z,100492.97
2019-02-25T06:40:52.383Z,100496.71
2019-02-25T06:43:03.189Z,100492.88
2019-02-25T06:45:55.662Z,100491.32
2019-02-25T06:48:06.468Z,100492.81
2019-02-25T06:50:17.283Z,100492.59
2019-02-25T06:52:28.074Z,100496.06
2019-02-25T06:54:38.876Z,100496.06
2019-02-25T06:56:49.704Z,100495.91
2019-02-25T06:59:00.516Z,100487.48
2019-02-25T07:01:11.301Z,100488.55
2019-02-25T07:03:22.123Z,100489.95
2019-02-25T07:05:52.825Z,100493.00
2019-02-25T07:10:41.946Z,100488.08
2019-02-25T07:13:12.619Z,100495.83
2019-02-25T07:18:01.758Z,100491.39
2019-02-25T07:20:32.442Z,100480.87
2019-02-25T07:23:03.514Z,100487.86
2019-02-25T07:25:34.371Z,100488.76
2019-02-25T07:30:37.545Z,100474.50
2019-02-25T07:33:08.207Z,100472.96
2019-02-25T07:35:38.913Z,100464.00
2019-02-25T07:40:41.946Z,100464.38
2019-02-25T07:43:12.654Z,100471.33
2019-02-25T07:45:43.358Z,100476.70
2019-02-25T07:48:14.067Z,100473.33
2019-02-25T07:50:47.177Z,100471.06
2019-02-25T07:53:17.341Z,100465.31
2019-02-25T08:00:47.465Z,100467.70
2019-02-25T08:03:18.156Z,100466.44
2019-02-25T08:05:48.826Z,100468.95
2019-02-25T08:08:19.543Z,100471.59
2019-02-25T08:18:03.715Z,100443.81
2019-02-25T08:20:34.390Z,100446.44
2019-02-25T08:23:05.082Z,100451.89
2019-02-25T08:25:35.772Z,100449.45
2019-02-25T08:28:06.491Z,100446.21
2019-02-25T08:30:37.158Z,100452.91
2019-02-25T08:35:48.344Z,100454.09
2019-02-25T08:38:19.022Z,100455.66
2019-02-25T08:41:11.484Z,100453.55
2019-02-25T08:46:01.263Z,100445.09
2019-02-25T08:48:31.935Z,100445.48
2019-02-25T08:50:42.766Z,100442.70
2019-02-25T08:52:53.595Z,100445.83
2019-02-25T08:55:46.073Z,100441.24
2019-02-25T08:57:56.861Z,100450.70
2019-02-25T09:00:49.339Z,100448.75
2019-02-25T09:03:00.138Z,100444.84
2019-02-25T09:05:52.600Z,100443.52
2019-02-25T09:08:03.390Z,100436.33
2019-02-25T09:10:14.213Z,100435.22
2019-02-25T09:12:25.030Z,100435.86
2019-02-25T09:14:55.717Z,100435.47
2019-02-25T09:17:06.633Z,100437.69
2019-02-25T09:19:17.473Z,100437.67
2019-02-25T09:21:31.774Z,100433.31
2019-02-25T09:23:41.000Z,100435.08
2019-02-25T09:25:51.831Z,100439.95
2019-02-25T09:28:02.631Z,100436.68
2019-02-25T09:30:55.126Z,100442.50
2019-02-25T09:33:05.917Z,100452.05
2019-02-25T09:35:16.738Z,100446.70
2019-02-25T09:37:27.547Z,100455.31
2019-02-25T09:39:38.324Z,100455.62
2019-02-25T09:41:49.150Z,100458.23
2019-02-25T09:44:00.003Z,100454.48
2019-02-25T09:46:10.823Z,100454.10
2019-02-25T09:48:21.624Z,100453.83
2019-02-25T09:50:32.444Z,100453.69
2019-02-25T09:52:43.266Z,100445.74
2019-02-25T09:54:54.099Z,100445.39
2019-02-25T09:57:04.935Z,100449.50
2019-02-25T09:59:15.730Z,100447.13
2019-02-25T10:01:26.543Z,100450.19
2019-02-25T10:03:37.360Z,100442.23
2019-02-25T10:05:48.174Z,100441.77
2019-02-25T10:07:59.006Z,100439.36
2019-02-25T10:10:51.449Z,100431.55
2019-02-25T10:13:02.259Z,100434.71
2019-02-25T10:15:32.919Z,100442.91
2019-02-25T10:17:43.853Z,100442.62
2019-02-25T10:19:54.672Z,100433.45
2019-02-25T10:22:05.449Z,100434.38
2019-02-25T10:24:16.262Z,100430.53
2019-02-25T10:26:27.088Z,100432.56
2019-02-25T10:28:37.918Z,100432.02
2019-02-25T10:30:52.805Z,100430.20
2019-02-25T10:33:01.579Z,100437.59
2019-02-25T10:35:54.034Z,100436.66
2019-02-25T10:38:04.837Z,100439.36
2019-02-25T10:40:17.836Z,100451.39
2019-02-25T10:42:29.509Z,100442.36
2019-02-25T10:44:41.215Z,100438.95
2019-02-25T10:46:52.010Z,100439.83
2019-02-25T10:49:11.095Z,100434.25
2019-02-25T10:51:15.756Z,100433.58
2019-02-25T10:53:26.571Z,100430.36
2019-02-25T10:56:20.082Z,100429.03
2019-02-25T10:58:33.527Z,100426.25
2019-02-25T11:00:46.068Z,100428.80
2019-02-25T11:02:58.195Z,100422.95
2019-02-25T11:05:21.202Z,100426.90
2019-02-25T11:07:33.155Z,100418.36
2019-02-25T11:10:05.309Z,100417.43
2019-02-25T11:12:16.234Z,100417.05
2019-02-25T11:14:27.174Z,100414.70
2019-02-25T11:16:38.063Z,100405.15
2019-02-25T11:18:50.626Z,100414.09
2019-02-25T11:21:03.685Z,100408.31
2019-02-25T11:23:15.378Z,100405.15
2019-02-25T11:25:28.466Z,100398.09
2019-02-25T11:27:40.096Z,100401.00
2019-02-25T11:29:52.593Z,100393.09
2019-02-25T11:32:45.026Z,100391.92
2019-02-25T11:34:55.841Z,100403.08
2019-02-25T11:37:06.772Z,100388.99
2019-02-25T11:41:50.052Z,100390.01
2019-02-25T11:44:00.964Z,100384.59
2019-02-25T11:46:12.008Z,100382.69
2019-02-25T11:48:22.825Z,100386.48
2019-02-25T11:50:33.648Z,100373.53
2019-02-25T11:52:44.543Z,100370.68
2019-02-25T11:54:55.337Z,100372.82
2019-02-25T11:59:44.618Z,100366.98
2019-02-25T12:01:55.462Z,100363.61
2019-02-25T12:04:06.263Z,100361.45
2019-02-25T12:06:17.217Z,100359.30
2019-02-25T12:08:28.006Z,100351.30
2019-02-25T12:10:38.849Z,100354.23
2019-02-25T12:12:49.663Z,100352.78
2019-02-25T12:15:00.477Z,100351.47
2019-02-25T12:17:11.302Z,100346.00
2019-02-25T12:19:22.107Z,100339.44
2019-02-25T12:21:32.940Z,100335.36
2019-02-25T12:23:43.797Z,100329.50
2019-02-25T12:25:54.604Z,100335.91
2019-02-25T12:28:05.426Z,100327.64
2019-02-25T12:30:57.918Z,100330.32
2019-02-25T12:33:08.709Z,100330.88
2019-02-25T12:35:19.507Z,100326.71
2019-02-25T12:37:30.337Z,100320.16
2019-02-25T12:39:41.146Z,100316.54
2019-02-25T12:41:51.946Z,100319.77
2019-02-25T12:44:02.883Z,100309.98
2019-02-25T12:46:13.705Z,100306.29
2019-02-25T12:48:24.587Z,100306.34
2019-02-25T12:50:35.378Z,100309.91
2019-02-25T12:52:46.306Z,100300.73
2019-02-25T12:54:57.103Z,100304.05
2019-02-25T12:57:07.889Z,100300.41
2019-02-25T12:59:18.710Z,100292.16
2019-02-25T13:01:29.517Z,100290.55
2019-02-25T13:03:40.342Z,100296.17
2019-02-25T13:05:51.142Z,100292.78
2019-02-25T13:10:20.762Z,100285.68
2019-02-25T13:12:31.549Z,100284.78
2019-02-25T13:14:42.391Z,100280.44
2019-02-25T13:16:53.197Z,100278.28
2019-02-25T13:19:04.013Z,100270.72
2019-02-25T13:21:14.810Z,100276.42
2019-02-25T13:23:25.627Z,100271.18
2019-02-25T13:25:36.458Z,100273.88
2019-02-25T13:27:47.310Z,100268.19
2019-02-25T13:29:58.143Z,100260.58
2019-02-25T13:32:09.153Z,100261.25
2019-02-25T13:34:19.972Z,100253.02
2019-02-25T13:36:30.877Z,100255.25
2019-02-25T13:38:41.671Z,100247.68
2019-02-25T13:40:52.497Z,100248.09
2019-02-25T13:43:03.402Z,100255.94
2019-02-25T13:45:34.086Z,100256.72
2019-02-25T13:47:44.885Z,100246.97
2019-02-25T13:49:55.697Z,100241.25
2019-02-25T13:52:06.519Z,100239.57
2019-02-25T13:54:17.449Z,100237.47
2019-02-25T13:56:28.355Z,100240.66
2019-02-25T13:58:39.160Z,100240.73
2019-02-25T14:00:50.099Z,100241.09
2019-02-25T14:03:03.202Z,100231.86
2019-02-25T14:05:13.721Z,100233.39
2019-02-25T14:07:24.541Z,100235.39
2019-02-25T14:09:35.380Z,100225.67
2019-02-25T14:11:46.190Z,100229.52
2019-02-25T14:13:57.201Z,100222.64
2019-02-25T14:16:09.939Z,100231.45
2019-02-25T14:18:20.856Z,100236.95
2019-02-25T14:20:31.766Z,100223.52
2019-02-25T14:22:42.597Z,100219.48
2019-02-25T14:24:53.391Z,100213.23
2019-02-25T14:27:04.341Z,100205.93
2019-02-25T14:29:15.135Z,100206.00
2019-02-25T14:31:27.284Z,100206.77
2019-02-25T14:33:38.685Z,100195.34
2019-02-25T14:35:50.244Z,100194.59
2019-02-25T14:38:23.221Z,100189.81
2019-02-25T14:40:39.441Z,100188.09
2019-02-25T14:42:49.459Z,100182.01
2019-02-25T14:45:01.288Z,100180.06
2019-02-25T14:47:20.619Z,100183.53
2019-02-25T14:49:25.825Z,100176.61
2019-02-25T14:51:36.734Z,100174.66
2019-02-25T14:53:49.392Z,100177.54
2019-02-25T14:56:03.877Z,100179.33
2019-02-25T14:58:14.904Z,100170.58
2019-02-25T15:01:07.333Z,100169.14
2019-02-25T15:03:20.096Z,100164.74
2019-02-25T15:05:30.995Z,100165.27
2019-02-25T15:07:44.987Z,100169.09
2019-02-25T15:09:57.930Z,100167.84
2019-02-25T15:12:11.674Z,100165.80
2019-02-25T15:14:22.161Z,100166.00
2019-02-25T15:16:33.087Z,100169.45
2019-02-25T15:18:43.942Z,100165.27
2019-02-25T15:20:56.458Z,100161.44
2019-02-25T15:25:29.205Z,100153.88
2019-02-25T15:27:39.415Z,100151.53
2019-02-25T15:29:50.224Z,100142.92
2019-02-25T15:32:01.945Z,100144.86
2019-02-25T15:34:15.026Z,100146.55
2019-02-25T15:36:26.986Z,100145.02
2019-02-25T15:38:40.982Z,100142.77
2019-02-25T15:40:51.950Z,100142.92
2019-02-25T15:43:23.312Z,100144.02
2019-02-25T15:46:19.025Z,100133.62
2019-02-25T15:48:30.944Z,100136.87
2019-02-25T15:50:46.134Z,100138.55
2019-02-25T15:52:56.976Z,100140.23
2019-02-25T15:55:49.853Z,100138.87
2019-02-25T15:58:01.069Z,100140.02
2019-02-25T16:00:53.539Z,100141.11
2019-02-25T16:05:38.819Z,100142.48
2019-02-25T16:07:51.495Z,100140.95
2019-02-25T16:10:44.334Z,100142.52
2019-02-25T16:12:56.204Z,100139.58
2019-02-25T16:15:49.589Z,100143.13
2019-02-25T16:18:02.370Z,100145.75
2019-02-25T16:20:54.940Z,100143.35
2019-02-25T16:23:09.559Z,100145.35
2019-02-25T16:26:02.145Z,100149.69
2019-02-25T16:28:14.873Z,100148.68
2019-02-25T16:30:28.857Z,100149.13
2019-02-25T16:32:40.117Z,100147.22
2019-02-25T16:34:51.277Z,100146.21
2019-02-25T16:37:03.014Z,100147.85
2019-02-25T16:39:14.942Z,100152.86
2019-02-25T16:41:29.905Z,100148.83
2019-02-25T16:43:38.497Z,100154.84
2019-02-25T16:45:49.382Z,100158.84
2019-02-25T16:48:00.260Z,100153.30
2019-02-25T16:50:52.801Z,100161.71
2019-02-25T16:53:05.926Z,100161.36
2019-02-25T16:55:36.259Z,100173.83
2019-02-25T16:57:47.775Z,100172.05
2019-02-25T17:00:02.228Z,100167.71
2019-02-25T17:02:14.176Z,100172.20
2019-02-25T17:04:27.184Z,100178.92
2019-02-25T17:06:38.074Z,100181.57
2019-02-25T17:08:49.727Z,100185.33
2019-02-25T17:11:01.713Z,100189.64
2019-02-25T17:13:14.825Z,100186.35
2019-02-25T17:17:59.373Z,100195.53
2019-02-25T17:20:52.053Z,100194.09
2019-02-25T17:23:02.903Z,100188.94
2019-02-25T17:25:55.374Z,100195.97
2019-02-25T17:28:08.190Z,100207.98
2019-02-25T17:31:00.539Z,100214.33
2019-02-25T17:35:33.608Z,100216.06
2019-02-25T17:37:44.547Z,100210.84
2019-02-25T17:39:58.569Z,100216.00
2019-02-25T17:44:40.630Z,100219.78
2019-02-25T17:46:51.461Z,100220.84
2019-02-25T17:49:02.496Z,100220.63
2019-02-25T17:51:13.417Z,100223.94
2019-02-25T17:53:25.821Z,100231.01
2019-02-25T17:55:36.965Z,100230.17
2019-02-25T17:57:49.783Z,100236.44
2019-02-25T18:00:00.779Z,100241.91
2019-02-25T18:02:12.714Z,100243.44
2019-02-25T18:04:26.567Z,100248.47
2019-02-25T18:06:38.940Z,100243.61
2019-02-25T18:08:51.359Z,100243.11
2019-02-25T18:11:45.459Z,100244.23
2019-02-25T18:13:57.833Z,100245.76
2019-02-25T18:16:12.052Z,100252.11
2019-02-25T18:18:24.511Z,100246.48
2019-02-25T18:20:36.648Z,100256.47
2019-02-25T18:22:50.809Z,100255.41
2019-02-25T18:25:04.461Z,100250.47
2019-02-25T18:27:14.508Z,100249.75
2019-02-25T18:29:25.343Z,100242.22
2019-02-25T18:31:38.094Z,100234.22
2019-02-25T18:33:52.790Z,100237.84
2019-02-25T18:36:24.491Z,100245.45
2019-02-25T18:38:36.313Z,100245.57
2019-02-25T18:40:47.145Z,100244.49
2019-02-25T18:43:00.424Z,100245.05
2019-02-25T18:45:33.285Z,100246.39
2019-02-25T18:48:27.442Z,100243.86
2019-02-25T18:50:39.545Z,100244.35
2019-02-25T18:52:52.869Z,100243.97
2019-02-25T18:55:47.555Z,100246.36
2019-02-25T18:57:58.645Z,100242.63
2019-02-25T19:00:53.091Z,100241.88
2019-02-25T19:03:45.604Z,100240.16
2019-02-25T19:05:57.444Z,100242.80
2019-02-25T19:08:51.616Z,100248.02
2019-02-25T19:11:03.971Z,100255.83
2019-02-25T19:13:15.917Z,100253.53
2019-02-25T19:15:27.650Z,100257.51
2019-02-25T19:17:38.553Z,100258.48
2019-02-25T19:19:51.599Z,100258.90
2019-02-25T19:22:02.378Z,100255.59
2019-02-25T19:26:48.991Z,100265.55
2019-02-25T19:29:00.631Z,100259.70
2019-02-25T19:31:11.592Z,100253.32
2019-02-25T19:33:22.438Z,100257.20
2019-02-25T19:35:35.337Z,100259.39
2019-02-25T19:37:46.802Z,100255.02
2019-02-25T19:39:59.031Z,100255.82
2019-02-25T19:42:10.005Z,100255.70
2019-02-25T19:44:21.239Z,100256.09
2019-02-25T19:46:33.730Z,100261.63
2019-02-25T19:48:45.234Z,100262.87
2019-02-25T19:50:59.008Z,100259.38
2019-02-25T19:53:12.634Z,100256.44
2019-02-25T19:55:23.531Z,100261.84
2019-02-25T19:57:35.831Z,100263.47
2019-02-25T19:59:50.243Z,100267.99
2019-02-25T20:01:59.396Z,100264.75
2019-02-25T20:04:12.176Z,100267.55
2019-02-25T20:06:23.538Z,100267.76
2019-02-25T20:08:35.734Z,100261.37
2019-02-25T20:10:46.591Z,100263.51
2019-02-25T20:16:07.340Z,100264.36
2019-02-25T20:18:11.729Z,100270.82
2019-02-25T20:22:57.355Z,100261.84
2019-02-25T20:25:51.150Z,100268.67
2019-02-25T20:28:04.342Z,100269.97
2019-02-25T20:30:57.320Z,100276.93
2019-02-25T20:33:08.707Z,100277.03
2019-02-25T20:35:22.174Z,100284.58
2019-02-25T20:37:33.893Z,100287.23
2019-02-25T20:39:46.534Z,100277.46
2019-02-25T20:41:58.758Z,100279.27
2019-02-25T20:44:10.321Z,100279.70
2019-02-25T20:46:23.911Z,100285.36
2019-02-25T20:48:33.969Z,100279.42
2019-02-25T20:50:44.913Z,100278.16
2019-02-25T20:52:56.559Z,100282.02
2019-02-25T20:55:10.772Z,100275.16
2019-02-25T20:57:21.477Z,100276.02
2019-02-25T20:59:33.134Z,100272.62
2019-02-25T21:01:46.685Z,100260.67
2019-02-25T21:03:57.852Z,100267.61
2019-02-25T21:06:09.876Z,100275.88
2019-02-25T21:08:23.529Z,100280.27
2019-02-25T21:10:35.634Z,100279.04
2019-02-25T21:12:46.889Z,100271.33
2019-02-25T21:14:57.716Z,100273.47
2019-02-25T21:17:08.547Z,100267.86
2019-02-25T21:19:20.103Z,100268.31
2019-02-25T21:21:32.534Z,100271.28
2019-02-25T21:23:44.811Z,100271.72
2019-02-25T21:25:57.692Z,100266.97
2019-02-25T21:28:09.180Z,100266.08
2019-02-25T21:30:21.120Z,100266.48
2019-02-25T21:32:31.920Z,100266.44
2019-02-25T21:34:46.205Z,100265.55
2019-02-25T21:36:56.266Z,100264.27
2019-02-25T21:41:41.783Z,100273.23
2019-02-25T21:43:54.060Z,100269.80
2019-02-25T21:46:06.340Z,100273.31
2019-02-25T21:48:17.178Z,100274.67
2019-02-25T21:50:30.645Z,100275.19
2019-02-25T21:52:41.714Z,100278.25
2019-02-25T21:54:53.648Z,100270.53
2019-02-25T21:57:05.394Z,100280.85
2019-02-25T21:59:17.618Z,100279.14
2019-02-25T22:01:31.934Z,100278.75
2019-02-25T22:03:45.943Z,100277.49
2019-02-25T22:05:56.250Z,100272.75
2019-02-25T22:08:08.073Z,100270.17
2019-02-25T22:11:12.032Z,100274.02
2019-02-25T22:13:14.320Z,100268.84
2019-02-25T22:15:26.321Z,100274.52
2019-02-25T22:17:37.965Z,100271.98
2019-02-25T22:19:50.253Z,100275.89
2019-02-25T22:22:04.406Z,100274.63
2019-02-25T22:24:15.377Z,100276.35
2019-02-25T22:26:29.046Z,100277.64
2019-02-25T22:30:57.659Z,100271.18
2019-02-25T22:33:22.543Z,100270.72
2019-02-25T22:35:21.350Z,100270.75
2019-02-25T22:37:32.193Z,100266.93
2019-02-25T22:39:43.916Z,100266.53
2019-02-25T22:41:55.753Z,100265.30
2019-02-25T22:44:08.426Z,100261.01
2019-02-25T22:46:19.294Z,100271.77
2019-02-25T22:48:30.220Z,100269.62
2019-02-25T22:50:41.017Z,100274.76
2019-02-25T22:52:58.118Z,100265.77
2019-02-25T22:55:47.855Z,100270.03
2019-02-25T22:57:58.947Z,100278.20
2019-02-25T23:00:51.389Z,100274.78
2019-02-25T23:03:02.536Z,100269.18
2019-02-25T23:05:15.220Z,100268.34
2019-02-25T23:07:26.178Z,100273.07
2019-02-25T23:09:39.117Z,100268.36
2019-02-25T23:11:50.658Z,100267.09
2019-02-25T23:14:44.073Z,100267.52
2019-02-25T23:16:54.872Z,100270.94
2019-02-25T23:19:05.720Z,100269.64
2019-02-25T23:21:23.447Z,100273.08
2019-02-25T23:23:30.636Z,100268.80
2019-02-25T23:25:42.036Z,100276.50
2019-02-25T23:27:53.486Z,100274.36
2019-02-25T23:30:25.484Z,100276.94
2019-02-25T23:32:38.798Z,100271.78
2019-02-25T23:34:50.645Z,100284.20
2019-02-25T23:37:01.705Z,100280.36
2019-02-25T23:39:54.175Z,100279.06
2019-02-25T23:42:06.855Z,100281.66
2019-02-25T23:44:19.771Z,100296.64
2019-02-25T23:46:32.163Z,100292.34
2019-02-25T23:48:44.620Z,100286.34
2019-02-25T23:50:57.765Z,100285.94
2019-02-25T23:53:08.550Z,100284.23
2019-02-25T23:55:21.764Z,100282.93
2019-02-25T23:57:32.689Z,100284.22
2019-02-25T23:59:46.521Z,100277.77
